Etusivu
METAR-TAF:

METAR-TAF

Lentoasemat :

Taylor County Airport

Medford, Wisconsin, Yhdysvallat

Leveyspiiri: 45-06-04N, Pituuspiiri: 090-18-12W, korkeus merenpinnasta: 448 m

Tämänhetkinen sää

Tämä raportti tehtiin 24 minuuttia sitten, kello 17.35 UTC
Tuuli 17 kn idästä puuskistuen 25 kn:hen
Lämpötila 9°C
Kosteus 100%
Ilmanpaine 991 hPa
Näkyvyys: 8.0 km
Pilvistä 800 ft:n korkeudessa
heikkoa sadetta

METAR: KMDZ 211735Z AUTO 10017G25KT 5SM -RA OVC008 09/09 A2927 RMK AO2 P0007 T00910085

Aika: 12:59 (17:59 UTC)


TAF: puuttuu

Säähavainnot ja -ennusteet yli 4000 lentoasemalta (METAR- ja TAF-raportit).

Käytössä olevat sääasemat on merkitty karttaan keltaisilla ja punaisilla pisteillä.

Aseta hiiri pisteen päälle nähdäksesi sääaseman nimen.

Klikkaa sitten nähdäksesi säähavainnot ja -ennusteet.

Kartan vaihtaminen: klikkaa mustalla rastilla varustettuja vihreitä pisteitä, niin voit zoomata sisään; viivalla varustettua vihreää pistettä, niin voit zoomata ulos tai vihreitä nuolia, niin pääset viereisille kartoille.


METAR-TAF: